createdAt,value
2023-04-07T00:01:39.954Z,78.00
2023-04-07T00:04:07.155Z,75.47
2023-04-07T00:06:35.007Z,80.60
2023-04-07T00:09:01.845Z,83.47
2023-04-07T00:11:28.903Z,90.00
2023-04-07T00:13:55.971Z,96.60
2023-04-07T00:16:23.203Z,87.13
2023-04-07T00:18:50.010Z,92.80
2023-04-07T00:21:16.820Z,94.47
2023-04-07T00:23:43.781Z,98.00
2023-04-07T00:26:10.770Z,110.17
2023-04-07T00:28:37.813Z,99.60
2023-04-07T00:31:04.665Z,105.33
2023-04-07T00:33:31.477Z,99.97
2023-04-07T00:35:58.758Z,86.80
2023-04-07T00:38:25.746Z,111.63
2023-04-07T00:40:58.408Z,120.63
2023-04-07T00:43:25.757Z,89.07
2023-04-07T00:45:53.829Z,86.70
2023-04-07T00:48:21.388Z,68.07
2023-04-07T00:50:48.129Z,78.57
2023-04-07T00:53:15.877Z,79.97
2023-04-07T00:55:43.239Z,76.37
2023-04-07T00:58:09.995Z,70.43
2023-04-07T01:00:45.631Z,62.47
2023-04-07T01:03:32.679Z,54.33
2023-04-07T01:06:05.661Z,50.77
2023-04-07T01:09:03.256Z,49.37
2023-04-07T01:11:42.613Z,42.27
2023-04-07T01:14:13.692Z,33.10
2023-04-07T01:16:48.737Z,19.57
2023-04-07T01:19:33.573Z,26.67
2023-04-07T01:22:02.062Z,24.67
2023-04-07T01:25:00.503Z,28.30
2023-04-07T01:28:03.359Z,24.53
2023-04-07T01:30:33.258Z,20.23
2023-04-07T01:33:01.766Z,19.10
2023-04-07T01:35:32.534Z,21.37
2023-04-07T01:38:00.494Z,21.20
2023-04-07T01:40:29.263Z,26.33
2023-04-07T01:42:57.975Z,25.53
2023-04-07T01:45:30.844Z,23.87
2023-04-07T01:47:58.147Z,22.13
2023-04-07T01:50:25.814Z,21.17
2023-04-07T01:52:53.560Z,24.03
2023-04-07T01:55:21.282Z,26.73
2023-04-07T01:57:47.939Z,21.07
2023-04-07T02:00:14.963Z,24.80
2023-04-07T02:02:45.196Z,27.67
2023-04-07T02:05:15.013Z,23.77
2023-04-07T02:07:52.174Z,21.83
2023-04-07T02:10:23.188Z,23.50
2023-04-07T02:12:50.172Z,22.13
2023-04-07T02:15:18.678Z,24.07
2023-04-07T02:17:51.902Z,20.93
2023-04-07T02:20:23.013Z,25.47
2023-04-07T02:22:49.928Z,27.37
2023-04-07T02:25:35.502Z,28.73
2023-04-07T02:28:02.352Z,27.70
2023-04-07T02:30:29.161Z,27.73
2023-04-07T02:32:56.405Z,33.67
2023-04-07T02:35:23.595Z,32.40
2023-04-07T02:37:51.044Z,34.20
2023-04-07T02:40:18.165Z,37.40
2023-04-07T02:42:45.035Z,33.97
2023-04-07T02:45:12.269Z,33.93
2023-04-07T02:47:39.932Z,37.20
2023-04-07T02:50:07.424Z,30.53
2023-04-07T02:52:34.271Z,36.73
2023-04-07T02:55:01.308Z,30.30
2023-04-07T02:57:28.047Z,34.17
2023-04-07T02:59:56.992Z,39.80
2023-04-07T03:02:25.973Z,40.60
2023-04-07T03:04:55.972Z,31.63
2023-04-07T03:07:22.688Z,32.87
2023-04-07T03:09:49.430Z,36.80
2023-04-07T03:12:16.323Z,28.63
2023-04-07T03:14:43.368Z,35.63
2023-04-07T03:17:10.507Z,30.60
2023-04-07T03:19:37.444Z,33.13
2023-04-07T03:22:04.218Z,38.37
2023-04-07T03:24:31.372Z,31.90
2023-04-07T03:26:58.320Z,31.63
2023-04-07T03:29:25.272Z,35.63
2023-04-07T03:31:52.067Z,34.47
2023-04-07T03:34:19.475Z,32.17
2023-04-07T03:36:46.239Z,35.53
2023-04-07T03:39:13.251Z,31.17
2023-04-07T03:41:40.178Z,37.90
2023-04-07T03:44:07.054Z,38.30
2023-04-07T03:46:33.847Z,33.23
2023-04-07T03:49:00.584Z,34.90
2023-04-07T03:51:27.903Z,24.87
2023-04-07T03:53:55.131Z,32.93
2023-04-07T03:56:22.515Z,43.57
2023-04-07T03:58:49.336Z,31.87
2023-04-07T04:01:16.236Z,33.03
2023-04-07T04:03:43.278Z,33.33
2023-04-07T04:06:10.311Z,33.77
2023-04-07T04:08:37.058Z,32.77
2023-04-07T04:11:03.837Z,35.87
2023-04-07T04:13:30.653Z,32.20
2023-04-07T04:15:57.390Z,25.27
2023-04-07T04:18:24.203Z,27.97
2023-04-07T04:20:50.970Z,32.17
2023-04-07T04:23:17.757Z,32.37
2023-04-07T04:25:44.485Z,26.50
2023-04-07T04:28:11.180Z,34.17
2023-04-07T04:30:37.898Z,33.00
2023-04-07T04:33:04.681Z,32.50
2023-04-07T04:35:31.527Z,27.83
2023-04-07T04:37:58.277Z,25.77
2023-04-07T04:40:25.152Z,31.60
2023-04-07T04:42:51.869Z,34.17
2023-04-07T04:45:18.649Z,33.70
2023-04-07T04:47:45.790Z,43.00
2023-04-07T04:50:13.087Z,34.43
2023-04-07T04:52:40.642Z,34.90
2023-04-07T04:55:08.222Z,35.60
2023-04-07T04:57:36.234Z,31.80
2023-04-07T05:00:04.429Z,34.77
2023-04-07T05:02:31.482Z,34.63
2023-04-07T05:04:58.521Z,29.03
2023-04-07T05:07:26.106Z,36.33
2023-04-07T05:09:52.963Z,36.47
2023-04-07T05:12:19.760Z,39.70
2023-04-07T05:14:46.570Z,35.40
2023-04-07T05:17:13.447Z,35.17
2023-04-07T05:19:40.481Z,31.87
2023-04-07T05:22:07.298Z,34.93
2023-04-07T05:24:34.116Z,33.13
2023-04-07T05:27:01.967Z,36.30
2023-04-07T05:29:29.893Z,30.03
2023-04-07T05:31:56.664Z,30.27
2023-04-07T05:34:23.472Z,27.67
2023-04-07T05:36:50.313Z,26.70
2023-04-07T05:39:17.109Z,30.70
2023-04-07T05:41:43.845Z,26.57
2023-04-07T05:44:10.635Z,30.87
2023-04-07T05:46:37.326Z,31.17
2023-04-07T05:49:16.840Z,25.43
2023-04-07T05:51:46.812Z,27.97
2023-04-07T05:54:15.063Z,22.70
2023-04-07T05:56:42.087Z,26.10
2023-04-07T05:59:09.434Z,31.33
2023-04-07T06:01:36.169Z,29.67
2023-04-07T06:04:03.589Z,32.30
2023-04-07T06:06:31.405Z,22.20
2023-04-07T06:08:58.256Z,23.40
2023-04-07T06:11:26.279Z,29.03
2023-04-07T06:13:53.053Z,27.57
2023-04-07T06:16:19.954Z,24.87
2023-04-07T06:18:47.057Z,25.10
2023-04-07T06:21:14.246Z,21.07
2023-04-07T06:23:41.083Z,25.43
2023-04-07T06:26:11.977Z,24.10
2023-04-07T06:28:39.171Z,22.20
2023-04-07T06:31:06.446Z,22.10
2023-04-07T06:33:33.286Z,23.47
2023-04-07T06:36:02.794Z,17.13
2023-04-07T06:38:29.976Z,20.53
2023-04-07T06:40:56.652Z,20.90
2023-04-07T06:43:23.895Z,18.83
2023-04-07T06:45:50.732Z,15.77
2023-04-07T06:48:17.485Z,20.63
2023-04-07T06:50:49.444Z,17.83
2023-04-07T06:53:16.400Z,18.33
2023-04-07T06:55:43.154Z,12.77
2023-04-07T06:58:10.067Z,18.37
2023-04-07T07:00:36.969Z,13.87
2023-04-07T07:03:03.871Z,13.20
2023-04-07T07:05:31.042Z,13.60
2023-04-07T07:07:57.826Z,13.20
2023-04-07T07:10:24.592Z,11.97
2023-04-07T07:12:51.643Z,12.63
2023-04-07T07:15:18.678Z,9.83
2023-04-07T07:17:46.019Z,11.03
2023-04-07T07:20:13.098Z,11.53
2023-04-07T07:22:39.816Z,8.20
2023-04-07T07:25:07.218Z,11.07
2023-04-07T07:27:33.937Z,9.80
2023-04-07T07:30:00.627Z,9.23
2023-04-07T07:32:28.392Z,8.83
2023-04-07T07:34:55.388Z,8.33
2023-04-07T07:37:22.109Z,10.13
2023-04-07T07:39:49.604Z,6.50
2023-04-07T07:42:16.486Z,10.37
2023-04-07T07:44:43.251Z,10.17
2023-04-07T07:47:10.505Z,9.17
2023-04-07T07:49:37.627Z,9.83
2023-04-07T07:52:04.448Z,8.00
2023-04-07T07:54:31.130Z,8.77
2023-04-07T07:56:57.835Z,11.17
2023-04-07T07:59:24.558Z,7.17
2023-04-07T08:01:51.318Z,6.53
2023-04-07T08:04:18.329Z,7.33
2023-04-07T08:06:45.540Z,6.13
2023-04-07T08:09:12.467Z,7.17
2023-04-07T08:11:42.374Z,7.30
2023-04-07T08:14:09.945Z,7.87
2023-04-07T08:16:36.956Z,4.90
2023-04-07T08:19:03.814Z,6.10
2023-04-07T08:21:31.778Z,7.17
2023-04-07T08:23:58.658Z,6.27
2023-04-07T08:26:25.403Z,6.20
2023-04-07T08:28:52.692Z,10.40
2023-04-07T08:31:19.836Z,5.43
2023-04-07T08:33:46.923Z,5.87
2023-04-07T08:36:13.944Z,5.93
2023-04-07T08:38:40.960Z,7.63
2023-04-07T08:41:13.166Z,9.10
2023-04-07T08:43:41.354Z,6.23
2023-04-07T08:46:10.330Z,7.23
2023-04-07T08:48:38.714Z,7.87
2023-04-07T08:51:08.237Z,4.50
2023-04-07T08:53:50.551Z,7.13
2023-04-07T08:56:26.027Z,7.50
2023-04-07T08:58:55.672Z,5.23
2023-04-07T09:01:23.349Z,6.10
2023-04-07T09:03:50.768Z,8.40
2023-04-07T09:06:18.189Z,5.40
2023-04-07T09:08:44.924Z,2.73
2023-04-07T09:11:12.239Z,5.10
2023-04-07T09:13:39.107Z,4.87
2023-04-07T09:16:06.641Z,2.43
2023-04-07T09:18:33.873Z,3.10
2023-04-07T09:21:05.536Z,4.50
2023-04-07T09:23:37.199Z,3.17
2023-04-07T09:26:24.413Z,4.77
2023-04-07T09:29:03.084Z,3.27
2023-04-07T09:31:57.788Z,4.50
2023-04-07T09:34:30.028Z,3.70
2023-04-07T09:36:57.466Z,4.10
2023-04-07T09:39:25.245Z,3.87
2023-04-07T09:41:52.540Z,4.60
2023-04-07T09:44:23.714Z,3.20
2023-04-07T09:46:55.169Z,5.63
2023-04-07T09:49:24.769Z,4.17
2023-04-07T09:52:07.870Z,3.87
2023-04-07T09:54:41.755Z,3.27
2023-04-07T09:57:10.657Z,3.57
2023-04-07T09:59:44.712Z,2.83
2023-04-07T10:02:12.358Z,2.97
2023-04-07T10:04:40.509Z,4.33
2023-04-07T10:07:07.466Z,4.87
2023-04-07T10:09:34.282Z,3.10
2023-04-07T10:12:01.124Z,5.03
2023-04-07T10:14:31.285Z,3.17
2023-04-07T10:17:00.492Z,4.87
2023-04-07T10:19:32.616Z,4.90
2023-04-07T10:22:01.843Z,3.57
2023-04-07T10:24:34.267Z,4.00
2023-04-07T10:27:05.268Z,5.60
2023-04-07T10:29:37.762Z,3.50
2023-04-07T10:32:04.744Z,5.67
2023-04-07T10:34:50.353Z,3.20
2023-04-07T10:37:22.094Z,4.57
2023-04-07T10:39:51.116Z,6.20
2023-04-07T10:42:39.666Z,6.47
2023-04-07T10:45:08.088Z,6.43
2023-04-07T10:47:36.975Z,7.30
2023-04-07T10:50:20.696Z,7.73
2023-04-07T10:52:49.200Z,8.40
2023-04-07T10:55:38.190Z,6.70
2023-04-07T10:58:28.871Z,13.37
2023-04-07T11:01:01.628Z,12.57
2023-04-07T11:03:29.951Z,11.67
2023-04-07T11:06:08.469Z,8.47
2023-04-07T11:08:36.953Z,12.33
2023-04-07T11:11:09.116Z,8.70
2023-04-07T11:13:42.484Z,13.63
2023-04-07T11:16:10.077Z,7.07
2023-04-07T11:18:37.726Z,8.00
2023-04-07T11:21:08.188Z,7.80
2023-04-07T11:23:40.074Z,8.50
2023-04-07T11:26:08.486Z,10.37
2023-04-07T11:28:36.841Z,6.43
2023-04-07T11:31:04.349Z,9.13
2023-04-07T11:33:32.312Z,8.17
2023-04-07T11:36:01.750Z,9.60
2023-04-07T11:38:34.817Z,10.03
2023-04-07T11:41:11.955Z,9.63
2023-04-07T11:43:41.781Z,13.57
2023-04-07T11:46:13.647Z,10.30
2023-04-07T11:48:42.665Z,13.57
2023-04-07T11:51:21.167Z,10.47
2023-04-07T11:53:48.214Z,11.17
2023-04-07T11:56:17.063Z,12.47
2023-04-07T11:58:51.470Z,13.50
2023-04-07T12:01:18.537Z,10.43
2023-04-07T12:03:56.492Z,8.90
2023-04-07T12:06:30.954Z,11.70
2023-04-07T12:08:57.706Z,8.67
2023-04-07T12:11:25.151Z,8.47
2023-04-07T12:13:52.100Z,11.13
2023-04-07T12:16:19.348Z,12.03
2023-04-07T12:18:46.341Z,12.33
2023-04-07T12:21:13.186Z,10.67
2023-04-07T12:23:39.901Z,13.23
2023-04-07T12:26:06.598Z,11.03
2023-04-07T12:28:33.577Z,14.77
2023-04-07T12:31:00.358Z,14.03
2023-04-07T12:33:27.093Z,9.60
2023-04-07T12:35:54.149Z,11.00
2023-04-07T12:38:21.352Z,8.17
2023-04-07T12:40:48.159Z,11.50
2023-04-07T12:43:14.869Z,7.90
2023-04-07T12:45:42.864Z,8.47
2023-04-07T12:48:09.744Z,10.57
2023-04-07T12:50:37.506Z,8.47
2023-04-07T12:53:05.529Z,8.67
2023-04-07T12:55:33.734Z,7.70
2023-04-07T12:58:00.769Z,9.47
2023-04-07T13:00:27.605Z,7.80
2023-04-07T13:02:54.481Z,8.47
2023-04-07T13:05:21.822Z,9.50
2023-04-07T13:07:49.816Z,11.07
2023-04-07T13:10:16.855Z,10.40
2023-04-07T13:12:43.559Z,11.93
2023-04-07T13:15:10.588Z,8.07
2023-04-07T13:17:38.578Z,9.90
2023-04-07T13:20:06.909Z,7.47
2023-04-07T13:22:35.702Z,7.13
2023-04-07T13:25:02.763Z,8.77
2023-04-07T13:27:29.562Z,5.77
2023-04-07T13:29:56.734Z,9.60
2023-04-07T13:32:23.748Z,8.03
2023-04-07T13:34:50.879Z,6.17
2023-04-07T13:37:19.531Z,6.43
2023-04-07T13:39:46.273Z,8.90
2023-04-07T13:42:16.857Z,7.67
2023-04-07T13:44:47.494Z,7.43
2023-04-07T13:47:19.823Z,6.67
2023-04-07T13:49:47.773Z,9.47
2023-04-07T13:52:15.186Z,6.57
2023-04-07T13:54:42.462Z,7.93
2023-04-07T13:57:09.125Z,9.30
2023-04-07T13:59:35.851Z,12.37
2023-04-07T14:02:02.781Z,9.00
2023-04-07T14:04:29.604Z,8.07
2023-04-07T14:06:56.508Z,9.67
2023-04-07T14:09:23.303Z,5.37
2023-04-07T14:11:50.019Z,6.20
2023-04-07T14:14:16.943Z,8.03
2023-04-07T14:16:44.516Z,8.47
2023-04-07T14:19:11.537Z,8.77
2023-04-07T14:21:38.224Z,6.83
2023-04-07T14:24:04.929Z,8.53
2023-04-07T14:26:31.938Z,7.47
2023-04-07T14:28:59.075Z,8.33
2023-04-07T14:31:26.128Z,8.70
2023-04-07T14:33:52.958Z,9.37
2023-04-07T14:36:19.744Z,11.63
2023-04-07T14:38:46.614Z,11.10
2023-04-07T14:41:13.399Z,12.07
2023-04-07T14:43:41.155Z,11.63
2023-04-07T14:46:08.115Z,12.40
2023-04-07T14:48:35.087Z,13.97
2023-04-07T14:51:08.850Z,12.27
2023-04-07T14:53:36.729Z,13.53
2023-04-07T14:56:07.386Z,15.10
2023-04-07T14:58:37.414Z,15.10
2023-04-07T15:01:07.348Z,16.63
2023-04-07T15:03:37.179Z,17.87
2023-04-07T15:06:08.938Z,17.37
2023-04-07T15:08:36.319Z,17.33
2023-04-07T15:11:09.407Z,17.27
2023-04-07T15:13:40.222Z,17.73
2023-04-07T15:16:11.754Z,17.33
2023-04-07T15:18:41.090Z,20.07
2023-04-07T15:21:12.288Z,19.20
2023-04-07T15:23:41.473Z,18.60
2023-04-07T15:26:09.553Z,17.87
2023-04-07T15:28:36.501Z,18.87
2023-04-07T15:31:03.828Z,19.33
2023-04-07T15:33:30.669Z,19.57
2023-04-07T15:35:57.570Z,24.03
2023-04-07T15:38:24.377Z,20.87
2023-04-07T15:40:51.660Z,19.90
2023-04-07T15:43:18.414Z,19.90
2023-04-07T15:45:45.248Z,19.47
2023-04-07T15:48:13.352Z,17.60
2023-04-07T15:50:40.302Z,17.80
2023-04-07T15:53:08.068Z,18.57
2023-04-07T15:55:35.826Z,17.87
2023-04-07T15:58:04.012Z,15.47
2023-04-07T16:00:33.735Z,13.90
2023-04-07T16:03:02.358Z,13.13
2023-04-07T16:05:29.557Z,12.87
2023-04-07T16:07:56.585Z,11.20
2023-04-07T16:10:23.484Z,9.83
2023-04-07T16:12:50.596Z,14.47
2023-04-07T16:15:32.529Z,10.93
2023-04-07T16:18:08.916Z,8.97
2023-04-07T16:20:36.220Z,9.30
2023-04-07T16:23:04.384Z,10.40
2023-04-07T16:25:31.761Z,10.23
2023-04-07T16:27:58.552Z,10.27
2023-04-07T16:30:25.534Z,12.07
2023-04-07T16:32:52.498Z,11.43
2023-04-07T16:35:19.506Z,11.53
2023-04-07T16:37:46.686Z,11.80
2023-04-07T16:40:13.755Z,11.70
2023-04-07T16:42:40.852Z,13.93
2023-04-07T16:45:08.214Z,12.20
2023-04-07T16:47:35.524Z,12.30
2023-04-07T16:50:04.282Z,12.83
2023-04-07T16:52:31.751Z,10.83
2023-04-07T16:54:59.301Z,11.53
2023-04-07T16:57:26.105Z,11.33
2023-04-07T16:59:52.798Z,12.60
2023-04-07T17:02:19.826Z,13.37
2023-04-07T17:04:46.918Z,12.07
2023-04-07T17:07:13.992Z,13.80
2023-04-07T17:09:40.859Z,12.43
2023-04-07T17:12:07.754Z,15.53
2023-04-07T17:14:36.907Z,13.80
2023-04-07T17:17:03.986Z,12.77
2023-04-07T17:19:31.385Z,13.53
2023-04-07T17:21:58.221Z,13.33
2023-04-07T17:24:28.334Z,13.70
2023-04-07T17:26:55.182Z,13.20
2023-04-07T17:29:34.239Z,12.03
2023-04-07T17:32:01.479Z,20.03
2023-04-07T17:34:29.608Z,22.30
2023-04-07T17:36:56.387Z,14.07
2023-04-07T17:39:23.145Z,12.80
2023-04-07T17:41:49.843Z,12.73
2023-04-07T17:44:19.390Z,14.00
2023-04-07T17:46:46.666Z,13.20
2023-04-07T17:49:14.541Z,13.00
2023-04-07T17:51:42.576Z,14.77
2023-04-07T17:54:09.316Z,14.60
2023-04-07T17:56:36.097Z,14.53
2023-04-07T17:59:02.936Z,13.80
2023-04-07T18:01:29.825Z,14.67
2023-04-07T18:03:57.365Z,13.07
2023-04-07T18:06:24.245Z,14.23
2023-04-07T18:08:51.094Z,14.10
2023-04-07T18:11:18.700Z,16.03
2023-04-07T18:13:45.500Z,15.93
2023-04-07T18:16:18.686Z,16.80
2023-04-07T18:18:49.413Z,16.77
2023-04-07T18:21:16.152Z,17.03
2023-04-07T18:23:42.853Z,18.00
2023-04-07T18:26:09.845Z,19.63
2023-04-07T18:28:36.628Z,19.17
2023-04-07T18:31:08.160Z,22.47
2023-04-07T18:33:36.459Z,21.20
2023-04-07T18:36:06.634Z,20.03
2023-04-07T18:38:34.515Z,20.57
2023-04-07T18:41:01.700Z,21.97
2023-04-07T18:43:28.401Z,21.73
2023-04-07T18:45:55.179Z,19.43
2023-04-07T18:48:21.898Z,20.67
2023-04-07T18:50:53.095Z,20.03
2023-04-07T18:53:24.422Z,19.37
2023-04-07T18:55:51.278Z,19.77
2023-04-07T18:58:18.077Z,21.40
2023-04-07T19:00:45.026Z,20.87
2023-04-07T19:03:12.146Z,21.80
2023-04-07T19:05:39.968Z,21.87
2023-04-07T19:08:06.913Z,22.13
2023-04-07T19:10:34.359Z,23.40
2023-04-07T19:13:01.790Z,26.20
2023-04-07T19:15:32.828Z,25.57
2023-04-07T19:18:01.962Z,25.17
2023-04-07T19:20:34.059Z,26.57
2023-04-07T19:23:01.786Z,24.87
2023-04-07T19:25:28.912Z,31.83
2023-04-07T19:27:55.648Z,32.33
2023-04-07T19:30:22.551Z,31.93
2023-04-07T19:32:49.805Z,36.70
2023-04-07T19:35:16.961Z,27.00
2023-04-07T19:37:44.725Z,25.20
2023-04-07T19:40:12.349Z,23.10
2023-04-07T19:42:41.917Z,28.43
2023-04-07T19:45:09.555Z,32.37
2023-04-07T19:47:36.694Z,32.60
2023-04-07T19:50:04.411Z,52.23
2023-04-07T19:52:33.409Z,69.13
2023-04-07T19:55:03.741Z,141.37
2023-04-07T19:57:31.636Z,79.23
2023-04-07T19:59:58.546Z,80.27
2023-04-07T20:02:25.932Z,83.43
2023-04-07T20:04:53.580Z,56.47
2023-04-07T20:07:20.388Z,47.63
2023-04-07T20:09:47.207Z,74.90
2023-04-07T20:12:14.974Z,55.97
2023-04-07T20:14:41.704Z,56.20
2023-04-07T20:17:08.510Z,71.90
2023-04-07T20:19:35.342Z,79.73
2023-04-07T20:22:02.239Z,89.93
2023-04-07T20:24:29.030Z,82.17
2023-04-07T20:26:56.376Z,147.93
2023-04-07T20:29:23.241Z,136.53
2023-04-07T20:31:50.056Z,124.53
2023-04-07T20:34:16.918Z,179.27
2023-04-07T20:36:44.765Z,90.10
2023-04-07T20:39:11.987Z,104.43
2023-04-07T20:41:42.881Z,66.43
2023-04-07T20:44:09.653Z,85.43
2023-04-07T20:46:36.570Z,109.07
2023-04-07T20:49:05.253Z,42.80
2023-04-07T20:51:32.088Z,57.13
2023-04-07T20:53:59.125Z,69.63
2023-04-07T20:56:26.001Z,42.43
2023-04-07T20:58:52.715Z,45.53
2023-04-07T21:01:19.565Z,62.27
2023-04-07T21:03:47.012Z,77.77
2023-04-07T21:06:13.912Z,100.73
2023-04-07T21:08:40.669Z,165.07
2023-04-07T21:11:07.442Z,89.73
2023-04-07T21:13:34.524Z,93.77
2023-04-07T21:16:03.718Z,83.37
2023-04-07T21:18:31.030Z,63.37
2023-04-07T21:20:59.621Z,55.37
2023-04-07T21:23:33.999Z,42.27
2023-04-07T21:26:02.304Z,50.33
2023-04-07T21:28:29.217Z,35.00
2023-04-07T21:30:56.846Z,43.93
2023-04-07T21:33:24.466Z,45.33
2023-04-07T21:35:52.070Z,41.67
2023-04-07T21:38:18.904Z,52.57
2023-04-07T21:40:45.702Z,55.20
2023-04-07T21:43:13.085Z,78.83
2023-04-07T21:45:39.907Z,49.77
2023-04-07T21:48:07.274Z,58.20
2023-04-07T21:50:34.450Z,54.27
2023-04-07T21:53:01.215Z,41.53
2023-04-07T21:55:28.192Z,40.33
2023-04-07T21:57:55.060Z,40.53
2023-04-07T22:00:22.103Z,37.30
2023-04-07T22:02:49.794Z,30.83
2023-04-07T22:05:17.739Z,32.30
2023-04-07T22:07:45.782Z,41.43
2023-04-07T22:10:12.923Z,38.67
2023-04-07T22:12:40.347Z,43.10
2023-04-07T22:15:08.644Z,51.23
2023-04-07T22:17:35.740Z,38.40
2023-04-07T22:20:02.748Z,41.47
2023-04-07T22:22:29.425Z,43.00
2023-04-07T22:24:56.226Z,40.50
2023-04-07T22:27:23.035Z,36.73
2023-04-07T22:29:49.804Z,45.33
2023-04-07T22:32:16.631Z,41.80
2023-04-07T22:34:43.675Z,39.97
2023-04-07T22:37:10.390Z,42.53
2023-04-07T22:39:37.188Z,48.67
2023-04-07T22:42:03.937Z,60.60
2023-04-07T22:44:30.740Z,60.53
2023-04-07T22:46:58.294Z,55.37
2023-04-07T22:49:25.157Z,94.13
2023-04-07T22:51:55.214Z,59.93
2023-04-07T22:54:21.959Z,64.77
2023-04-07T22:56:48.913Z,69.20
2023-04-07T22:59:15.769Z,68.53
2023-04-07T23:01:42.654Z,68.33
2023-04-07T23:04:09.490Z,57.37
2023-04-07T23:06:36.619Z,76.20
2023-04-07T23:09:03.405Z,68.17
2023-04-07T23:11:30.085Z,65.50
2023-04-07T23:13:56.953Z,73.00
2023-04-07T23:16:25.780Z,59.97
2023-04-07T23:18:52.565Z,74.43
2023-04-07T23:21:19.271Z,72.13
2023-04-07T23:23:46.250Z,69.83
2023-04-07T23:26:13.101Z,66.60
2023-04-07T23:28:39.900Z,57.83
2023-04-07T23:31:06.778Z,59.93
2023-04-07T23:33:33.602Z,52.23
2023-04-07T23:36:00.537Z,53.90
2023-04-07T23:38:27.562Z,73.67
2023-04-07T23:40:54.562Z,80.57
2023-04-07T23:43:21.733Z,112.77
2023-04-07T23:45:48.526Z,194.60
2023-04-07T23:48:17.389Z,83.67
2023-04-07T23:50:44.679Z,83.93
2023-04-07T23:53:11.430Z,101.17
2023-04-07T23:55:38.222Z,82.10
2023-04-07T23:58:05.042Z,197.93
